createdAt,value
2022-11-25T06:34:30.414Z,3.10
2022-11-25T06:36:57.869Z,2.97
2022-11-25T06:39:24.733Z,2.73
2022-11-25T06:41:51.682Z,2.13
2022-11-25T06:44:18.531Z,2.27
2022-11-25T06:46:45.527Z,2.83
2022-11-25T06:49:12.465Z,3.37
2022-11-25T06:51:39.459Z,2.43
2022-11-25T06:54:07.368Z,3.33
2022-11-25T06:56:34.443Z,3.13
2022-11-25T06:59:01.405Z,3.97
2022-11-25T07:01:29.771Z,3.03
2022-11-25T07:04:03.402Z,3.70
2022-11-25T07:06:31.421Z,3.87
2022-11-25T07:08:58.370Z,4.50
2022-11-25T07:11:30.438Z,3.40
2022-11-25T07:14:05.645Z,3.77
2022-11-25T07:16:33.138Z,2.97
2022-11-25T07:19:03.540Z,2.80
2022-11-25T07:21:32.150Z,3.70
2022-11-25T07:24:05.281Z,2.53
2022-11-25T07:26:35.242Z,2.87
2022-11-25T07:29:04.703Z,3.80
2022-11-25T07:31:34.730Z,2.70
2022-11-25T07:34:20.748Z,2.97
2022-11-25T07:36:49.701Z,2.70
2022-11-25T07:39:21.957Z,3.40
2022-11-25T07:41:54.199Z,2.90
2022-11-25T07:44:21.712Z,2.77
2022-11-25T07:46:52.196Z,3.80
2022-11-25T07:49:22.884Z,3.60
2022-11-25T07:51:53.866Z,2.73
2022-11-25T07:54:22.359Z,2.30
2022-11-25T07:56:50.905Z,3.23
2022-11-25T07:59:20.234Z,2.40
2022-11-25T08:01:49.646Z,2.08
2022-11-25T08:06:49.957Z,2.57
2022-11-25T08:09:19.580Z,1.80
2022-11-25T08:11:47.757Z,2.33
2022-11-25T08:14:15.599Z,2.60
2022-11-25T08:16:42.662Z,3.83
2022-11-25T08:19:14.087Z,3.17
2022-11-25T08:21:41.351Z,2.43
2022-11-25T08:24:10.187Z,2.07
2022-11-25T08:26:37.872Z,2.10
2022-11-25T08:29:06.739Z,2.10
2022-11-25T08:31:38.665Z,2.10
2022-11-25T08:34:07.327Z,2.70
2022-11-25T08:36:36.445Z,2.07
2022-11-25T08:39:28.996Z,1.67
2022-11-25T08:41:53.615Z,2.70
2022-11-25T08:44:20.478Z,2.20
2022-11-25T08:46:47.441Z,2.00
2022-11-25T08:49:16.991Z,2.00
2022-11-25T08:54:10.615Z,2.93
2022-11-25T08:56:37.497Z,2.37
2022-11-25T08:59:05.015Z,3.00
2022-11-25T09:01:32.687Z,2.70
2022-11-25T09:04:00.462Z,2.30
2022-11-25T09:06:28.780Z,2.60
2022-11-25T09:09:01.921Z,2.47
2022-11-25T09:11:29.270Z,2.53
2022-11-25T09:13:56.260Z,3.63
2022-11-25T09:16:24.540Z,2.13
2022-11-25T09:18:56.016Z,2.50
2022-11-25T09:21:25.248Z,2.60
2022-11-25T09:23:54.972Z,2.97
2022-11-25T09:26:27.535Z,3.30
2022-11-25T09:28:55.083Z,2.80
2022-11-25T09:31:22.649Z,2.60
2022-11-25T09:33:49.821Z,2.67
2022-11-25T09:36:18.385Z,2.27
2022-11-25T09:38:45.607Z,1.75
2022-11-25T09:42:13.119Z,2.50
2022-11-25T09:45:04.527Z,2.73
2022-11-25T09:47:58.006Z,2.30
2022-11-25T09:50:31.198Z,2.90
2022-11-25T09:53:11.950Z,2.80
2022-11-25T09:55:45.125Z,2.90
2022-11-25T09:58:30.647Z,2.57
2022-11-25T10:00:58.310Z,2.10
2022-11-25T10:03:57.437Z,2.53
2022-11-25T10:06:28.814Z,2.67
2022-11-25T10:08:59.632Z,2.57
2022-11-25T10:11:51.108Z,4.27
2022-11-25T10:14:26.812Z,7.07
2022-11-25T10:17:13.715Z,6.23
2022-11-25T10:20:05.520Z,2.60
2022-11-25T10:22:35.373Z,3.03
2022-11-25T10:25:12.516Z,2.43
2022-11-25T10:27:57.412Z,3.07
2022-11-25T10:30:27.939Z,2.20
2022-11-25T10:33:03.751Z,2.20
2022-11-25T10:35:38.446Z,1.13
2022-11-25T10:38:18.632Z,1.13
2022-11-25T10:40:50.271Z,0.93
2022-11-25T10:43:17.115Z,1.20
2022-11-25T10:46:07.689Z,1.60
2022-11-25T10:48:56.602Z,1.38
2022-11-25T10:51:36.843Z,2.17
2022-11-25T10:54:12.704Z,1.45
2022-11-25T10:56:44.062Z,1.50
2022-11-25T10:59:22.744Z,1.55
2022-11-25T11:01:52.711Z,1.50
2022-11-25T11:04:20.237Z,1.60
2022-11-25T11:06:50.012Z,1.50
2022-11-25T11:09:42.478Z,2.17
2022-11-25T11:12:26.044Z,1.83
2022-11-25T11:14:56.775Z,2.83
2022-11-25T11:17:37.121Z,2.30
2022-11-25T11:20:07.295Z,2.03
2022-11-25T11:22:36.015Z,1.67
2022-11-25T11:25:27.237Z,2.08
2022-11-25T11:27:54.966Z,2.83
2022-11-25T11:30:24.780Z,2.60
2022-11-25T11:33:30.325Z,2.63
2022-11-25T11:36:06.111Z,2.40
2022-11-25T11:38:38.075Z,2.23
2022-11-25T11:41:47.364Z,2.03
2022-11-25T11:50:08.493Z,2.70
2022-11-25T11:52:49.667Z,3.27
2022-11-25T11:55:42.677Z,3.40
2022-11-25T11:58:34.363Z,2.50
2022-11-25T12:01:03.786Z,2.70
2022-11-25T12:06:06.395Z,3.97
2022-11-25T12:08:52.057Z,3.13
2022-11-25T12:11:27.473Z,3.37
2022-11-25T12:14:12.275Z,2.97
2022-11-25T12:16:57.390Z,4.03
2022-11-25T12:19:36.609Z,4.03
2022-11-25T12:22:26.900Z,2.33
2022-11-25T12:25:00.121Z,2.67
2022-11-25T12:27:33.748Z,6.20
2022-11-25T12:30:16.553Z,4.90
2022-11-25T12:32:55.542Z,3.42
2022-11-25T12:35:34.202Z,2.67
2022-11-25T12:38:12.840Z,2.70
2022-11-25T12:40:45.361Z,2.42
2022-11-25T12:43:34.089Z,2.55
2022-11-25T12:46:31.712Z,2.83
2022-11-25T12:48:59.553Z,2.47
2022-11-25T12:51:48.130Z,2.78
2022-11-25T12:54:23.968Z,3.22
2022-11-25T12:56:58.749Z,2.55
2022-11-25T13:00:17.578Z,2.53
2022-11-25T13:03:20.345Z,2.75
2022-11-25T13:05:50.169Z,3.72
2022-11-25T13:08:54.333Z,4.35
2022-11-25T13:11:48.196Z,3.15
2022-11-25T13:14:25.375Z,3.17
2022-11-25T13:16:54.663Z,3.17
2022-11-25T13:22:06.466Z,3.38
2022-11-25T13:24:41.953Z,3.65
2022-11-25T13:27:40.385Z,2.83
2022-11-25T13:30:51.674Z,3.33
2022-11-25T13:33:18.429Z,5.17
2022-11-25T13:35:46.283Z,4.20
2022-11-25T13:38:30.963Z,3.80
2022-11-25T13:41:02.550Z,5.27
2022-11-25T13:43:29.605Z,4.83
2022-11-25T13:45:56.831Z,4.50
2022-11-25T13:48:28.187Z,4.10
2022-11-25T13:51:27.180Z,4.17
2022-11-25T13:54:01.812Z,3.72
2022-11-25T13:56:35.145Z,4.40
2022-11-25T13:59:11.057Z,5.60
2022-11-25T14:01:50.915Z,4.50
2022-11-25T14:04:21.497Z,4.17
2022-11-25T14:06:57.619Z,4.13
2022-11-25T14:09:39.968Z,5.00
2022-11-25T14:12:28.691Z,4.47
2022-11-25T14:15:21.701Z,4.70
2022-11-25T14:18:12.869Z,4.93
2022-11-25T14:20:39.984Z,5.63
2022-11-25T14:23:34.471Z,5.87
2022-11-25T14:26:26.763Z,5.80
2022-11-25T14:29:17.328Z,6.77
2022-11-25T14:31:52.226Z,5.80
2022-11-25T14:34:35.673Z,6.73
2022-11-25T14:37:37.749Z,5.20
2022-11-25T14:40:21.249Z,7.73
2022-11-25T14:42:52.661Z,7.93
2022-11-25T14:45:21.924Z,6.53
2022-11-25T14:47:48.979Z,7.65
2022-11-25T14:50:34.324Z,8.57
2022-11-25T14:53:06.706Z,9.57
2022-11-25T14:55:33.510Z,9.13
2022-11-25T14:58:00.396Z,9.43
2022-11-25T15:00:27.642Z,9.77
2022-11-25T15:03:01.349Z,9.57
2022-11-25T15:05:32.669Z,8.40
2022-11-25T15:08:01.308Z,10.07
2022-11-25T15:11:00.683Z,10.15
2022-11-25T15:16:06.865Z,9.30
2022-11-25T15:18:37.251Z,8.53
2022-11-25T15:21:04.840Z,6.77
2022-11-25T15:23:36.507Z,7.83
2022-11-25T15:26:05.303Z,11.47
2022-11-25T15:28:39.033Z,5.97
2022-11-25T15:31:12.884Z,10.17
2022-11-25T15:33:41.805Z,7.67
2022-11-25T15:36:08.872Z,7.75
2022-11-25T15:38:44.413Z,8.03
2022-11-25T15:41:34.092Z,9.67
2022-11-25T15:44:04.186Z,9.00
2022-11-25T15:46:35.383Z,8.13
2022-11-25T15:49:08.150Z,7.27
2022-11-25T15:51:49.195Z,9.13
2022-11-25T15:54:37.359Z,10.43
2022-11-25T15:57:17.072Z,10.33
2022-11-25T15:59:49.708Z,14.10
2022-11-25T16:02:35.378Z,15.60
2022-11-25T16:05:17.231Z,18.07
2022-11-25T16:07:50.437Z,19.63
2022-11-25T16:10:17.889Z,19.23
2022-11-25T16:12:45.371Z,15.63
2022-11-25T16:15:18.520Z,15.93
2022-11-25T16:17:45.492Z,13.57
2022-11-25T16:20:19.989Z,12.70
2022-11-25T16:22:47.362Z,13.03
2022-11-25T16:25:16.495Z,15.43
2022-11-25T16:27:45.230Z,16.30
2022-11-25T16:30:20.735Z,14.53
2022-11-25T16:32:47.725Z,16.07
2022-11-25T16:35:18.423Z,14.70
2022-11-25T16:37:49.206Z,14.37
2022-11-25T16:40:18.691Z,12.87
2022-11-25T16:42:48.616Z,11.05
2022-11-25T16:45:23.635Z,11.40
2022-11-25T16:47:50.651Z,10.97
2022-11-25T16:50:18.920Z,10.53
2022-11-25T16:52:45.794Z,11.40
2022-11-25T16:55:12.831Z,12.03
2022-11-25T16:57:42.206Z,13.03
2022-11-25T17:00:18.482Z,14.20
2022-11-25T17:02:46.375Z,11.97
2022-11-25T17:05:24.461Z,12.27
2022-11-25T17:07:52.013Z,7.30
2022-11-25T17:10:20.614Z,6.27
2022-11-25T17:12:48.421Z,7.25
2022-11-25T17:15:19.116Z,7.00
2022-11-25T17:17:48.092Z,6.63
2022-11-25T17:20:17.024Z,9.00
2022-11-25T17:22:43.979Z,9.05
2022-11-25T17:25:17.036Z,8.40
2022-11-25T17:27:46.309Z,9.00
2022-11-25T17:30:23.014Z,10.60
2022-11-25T17:33:04.306Z,11.43
2022-11-25T17:35:31.175Z,8.87
2022-11-25T17:38:00.763Z,9.17
2022-11-25T17:40:28.508Z,8.50
2022-11-25T17:42:56.212Z,8.90
2022-11-25T17:45:23.122Z,9.50
2022-11-25T17:47:52.329Z,10.53
2022-11-25T17:50:25.405Z,11.20
2022-11-25T17:52:52.973Z,9.00
2022-11-25T17:55:22.572Z,6.87
2022-11-25T17:57:49.957Z,6.27
2022-11-25T18:00:22.108Z,4.63
2022-11-25T18:02:50.204Z,5.30
2022-11-25T18:05:20.596Z,4.97
2022-11-25T18:07:47.671Z,4.87
2022-11-25T18:10:20.751Z,6.10
2022-11-25T18:12:49.891Z,5.87
2022-11-25T18:15:21.239Z,5.65
2022-11-25T18:17:50.429Z,7.70
2022-11-25T18:20:21.782Z,7.63
2022-11-25T18:22:51.974Z,8.30
2022-11-25T18:25:22.517Z,9.50
2022-11-25T18:27:56.351Z,10.77
2022-11-25T18:30:27.085Z,9.80
2022-11-25T18:32:54.263Z,14.90
2022-11-25T18:35:24.176Z,12.10
2022-11-25T18:37:51.043Z,11.20
2022-11-25T18:40:18.319Z,11.27
2022-11-25T18:42:50.303Z,10.50
2022-11-25T18:45:23.489Z,9.80
2022-11-25T18:47:50.352Z,8.70
2022-11-25T18:50:22.849Z,11.00
2022-11-25T18:52:53.212Z,8.23
2022-11-25T18:55:23.020Z,7.50
2022-11-25T18:57:53.618Z,7.07
2022-11-25T19:00:32.242Z,8.57
2022-11-25T19:03:00.039Z,8.68
2022-11-25T19:05:30.711Z,10.57
2022-11-25T19:07:58.474Z,8.17
2022-11-25T19:10:29.653Z,7.40
2022-11-25T19:13:01.751Z,8.87
2022-11-25T19:15:28.812Z,9.90
2022-11-25T19:18:01.325Z,9.37
2022-11-25T19:20:32.457Z,8.17
2022-11-25T19:23:12.218Z,8.57
2022-11-25T19:25:39.160Z,9.30
2022-11-25T19:28:06.121Z,9.60
2022-11-25T19:30:33.336Z,13.40
2022-11-25T19:33:02.098Z,14.03
2022-11-25T19:35:38.513Z,12.20
2022-11-25T19:38:21.322Z,9.97
2022-11-25T19:40:49.535Z,10.63
2022-11-25T19:43:17.683Z,10.07
2022-11-25T19:45:45.156Z,9.93
2022-11-25T19:48:18.040Z,10.03
2022-11-25T19:50:48.310Z,10.73
2022-11-25T19:53:21.170Z,9.77
2022-11-25T19:55:48.693Z,10.37
2022-11-25T19:58:16.001Z,7.60
2022-11-25T20:00:45.777Z,8.20
2022-11-25T20:03:26.261Z,8.63
2022-11-25T20:05:54.932Z,10.83
2022-11-25T20:08:27.780Z,12.55
2022-11-25T20:10:56.082Z,11.47
2022-11-25T20:13:30.313Z,14.20
2022-11-25T20:15:58.851Z,12.50
2022-11-25T20:18:26.886Z,12.18
2022-11-25T20:21:00.915Z,14.37
2022-11-25T20:23:38.581Z,12.90
2022-11-25T20:26:31.714Z,12.07
2022-11-25T20:28:58.772Z,12.57
2022-11-25T20:31:30.525Z,13.10
2022-11-25T20:33:57.902Z,13.43
2022-11-25T20:36:33.525Z,10.63
2022-11-25T20:39:03.447Z,10.93
2022-11-25T20:41:30.969Z,11.27
2022-11-25T20:43:58.271Z,11.83
2022-11-25T20:46:29.603Z,9.83
2022-11-25T20:48:59.616Z,10.70
2022-11-25T20:51:26.783Z,10.20
2022-11-25T20:53:58.703Z,11.27
2022-11-25T20:56:27.251Z,11.57
2022-11-25T20:58:54.342Z,11.02
2022-11-25T21:01:21.533Z,11.40
2022-11-25T21:03:50.361Z,12.43
2022-11-25T21:06:20.266Z,13.50
2022-11-25T21:08:49.819Z,13.80
2022-11-25T21:11:17.618Z,12.90
2022-11-25T21:13:44.766Z,12.83
2022-11-25T21:16:12.030Z,11.30
2022-11-25T21:18:39.695Z,11.57
2022-11-25T21:21:36.079Z,12.40
2022-11-25T21:24:10.901Z,12.80
2022-11-25T21:26:41.488Z,15.20
2022-11-25T21:29:13.954Z,13.77
2022-11-25T21:31:40.750Z,13.83
2022-11-25T21:34:11.181Z,14.17
2022-11-25T21:36:39.095Z,17.43
2022-11-25T21:39:32.733Z,16.73
2022-11-25T21:42:07.312Z,17.50
2022-11-25T21:44:40.357Z,18.37
2022-11-25T21:47:18.841Z,18.73
2022-11-25T21:52:14.156Z,14.40
2022-11-25T21:54:41.391Z,13.87
2022-11-25T21:57:20.011Z,10.47
2022-11-25T21:59:48.244Z,9.93
2022-11-25T22:02:23.307Z,9.40
2022-11-25T22:04:52.197Z,7.90
2022-11-25T22:07:19.440Z,7.10
2022-11-25T22:09:47.240Z,7.80
2022-11-25T22:12:26.950Z,7.47
2022-11-25T22:14:54.914Z,7.13
2022-11-25T22:17:22.478Z,7.83
2022-11-25T22:19:49.805Z,11.03
2022-11-25T22:22:17.335Z,11.80
2022-11-25T22:24:44.883Z,11.40
2022-11-25T22:27:26.163Z,11.47
2022-11-25T22:29:54.601Z,10.90
2022-11-25T22:32:21.558Z,11.43
2022-11-25T22:34:48.406Z,11.67
2022-11-25T22:37:20.584Z,11.67
2022-11-25T22:39:48.214Z,12.10
2022-11-25T22:42:28.106Z,10.60
2022-11-25T22:44:57.617Z,10.07
2022-11-25T22:49:57.868Z,10.87
2022-11-25T22:52:31.197Z,10.70
2022-11-25T22:55:00.363Z,11.00
2022-11-25T22:57:28.488Z,10.18
2022-11-25T22:59:58.600Z,9.80
2022-11-25T23:02:34.655Z,9.83
2022-11-25T23:05:04.980Z,9.27
2022-11-25T23:07:31.864Z,13.17
2022-11-25T23:09:58.815Z,8.73
2022-11-25T23:12:26.037Z,10.50
2022-11-25T23:14:52.788Z,14.37
2022-11-25T23:17:26.477Z,14.00
2022-11-25T23:19:53.658Z,12.43
2022-11-25T23:22:20.587Z,12.93
2022-11-25T23:24:48.826Z,11.57
2022-11-25T23:27:16.843Z,11.40
2022-11-25T23:29:45.093Z,12.10
2022-11-25T23:32:20.425Z,12.73
2022-11-25T23:34:50.273Z,14.23
2022-11-25T23:37:17.413Z,13.37
2022-11-25T23:39:49.572Z,14.53
2022-11-25T23:42:18.996Z,15.23
2022-11-25T23:44:45.947Z,14.85
2022-11-25T23:47:20.691Z,15.60
2022-11-25T23:49:51.102Z,16.60
2022-11-25T23:52:28.101Z,15.27
2022-11-25T23:54:55.689Z,14.47
2022-11-25T23:57:26.514Z,13.50
2022-11-25T23:59:53.935Z,11.67
